Time;durP1;ratioP1;P1;durP2;ratioP2;P2;SDS_P1;SDS_P2;PMS_P1;PMS_P2;Temp;Humidity;BMP_temperature;BMP_pressure;BME280_temperature;BME280_humidity;BME280_pressure;Samples;Min_cycle;Max_cycle;Signal;HPM_P1;HPM_P2
2023/08/31 00:00:51;;;;;;;7.00;6.20;;;;;;;17.63;94.77;99537.14;105571;276;39604;-73
2023/08/31 00:03:36;;;;;;;7.00;6.30;;;;;;;17.60;94.43;99539.64;106251;275;38902;-73
2023/08/31 00:06:10;;;;;;;7.60;6.20;;;;;;;17.58;94.48;99538.59;105549;275;39380;-73
2023/08/31 00:08:45;;;;;;;6.20;5.60;;;;;;;17.55;94.44;99546.02;105806;263;38259;-73
2023/08/31 00:11:19;;;;;;;5.30;4.70;;;;;;;17.55;94.37;99543.58;106218;275;39427;-73
2023/08/31 00:13:53;;;;;;;6.00;5.40;;;;;;;17.53;94.35;99545.86;105827;275;38847;-73
2023/08/31 00:16:29;;;;;;;5.80;5.30;;;;;;;17.51;94.28;99544.42;105863;274;38389;-73
2023/08/31 00:19:04;;;;;;;7.40;5.00;;;;;;;17.50;94.40;99541.85;106096;275;174249;-73
2023/08/31 00:21:39;;;;;;;5.80;5.30;;;;;;;17.49;94.36;99540.19;105840;275;38443;-73
2023/08/31 00:24:14;;;;;;;5.80;5.20;;;;;;;17.47;94.29;99541.88;105836;274;38256;-73
2023/08/31 00:26:51;;;;;;;5.50;4.70;;;;;;;17.46;94.14;99544.11;105598;275;38505;-73
2023/08/31 00:29:27;;;;;;;6.00;5.20;;;;;;;17.45;94.07;99544.73;105816;275;38243;-74
2023/08/31 00:32:03;;;;;;;5.60;5.10;;;;;;;17.43;94.01;99546.29;105837;275;38399;-74
2023/08/31 00:34:39;;;;;;;5.60;5.10;;;;;;;17.38;93.89;99544.20;105837;275;38237;-74
2023/08/31 00:37:13;;;;;;;5.40;4.90;;;;;;;17.34;94.01;99547.04;105832;275;38251;-74
2023/08/31 00:39:51;;;;;;;6.20;4.90;;;;;;;17.34;94.06;99541.39;106223;275;39490;-73
2023/08/31 00:42:26;;;;;;;6.30;5.00;;;;;;;17.30;93.95;99546.09;105862;275;38454;-73
2023/08/31 00:45:03;;;;;;;5.00;4.60;;;;;;;17.27;94.03;99544.52;105843;275;39452;-74
2023/08/31 00:47:38;;;;;;;6.00;5.10;;;;;;;17.27;94.11;99541.54;105821;275;38455;-74
2023/08/31 00:50:13;;;;;;;6.00;4.30;;;;;;;17.27;94.43;99539.27;106239;279;38980;-74
2023/08/31 00:52:48;;;;;;;6.50;5.10;;;;;;;17.29;94.51;99538.98;105819;275;38390;-74
2023/08/31 00:55:22;;;;;;;5.80;4.80;;;;;;;17.28;94.58;99540.46;105854;275;38339;-73
2023/08/31 00:57:56;;;;;;;5.60;4.40;;;;;;;17.27;94.54;99536.61;105828;275;38411;-73
2023/08/31 01:00:34;;;;;;;6.10;4.40;;;;;;;17.26;94.41;99538.10;105866;275;38430;-73
2023/08/31 01:03:13;;;;;;;4.30;4.00;;;;;;;17.26;94.31;99538.67;105826;275;39410;-73
2023/08/31 01:05:53;;;;;;;6.10;4.80;;;;;;;17.26;94.34;99540.91;105806;275;38205;-75
2023/08/31 01:08:36;;;;;;;6.50;5.20;;;;;;;17.23;94.07;99546.85;105604;276;38301;-74
2023/08/31 01:11:18;;;;;;;4.30;3.90;;;;;;;17.20;94.29;99547.62;105849;275;39391;-74
2023/08/31 01:13:54;;;;;;;5.40;4.70;;;;;;;17.18;94.24;99551.08;105844;275;39538;-74
2023/08/31 01:16:28;;;;;;;5.50;4.80;;;;;;;17.17;94.42;99545.74;105837;275;38291;-75
2023/08/31 01:19:04;;;;;;;5.40;4.20;;;;;;;17.18;94.53;99543.91;105826;275;38551;-73
2023/08/31 01:21:42;;;;;;;5.10;4.10;;;;;;;17.20;94.35;99549.55;105583;277;39422;-73
2023/08/31 01:24:17;;;;;;;4.60;4.20;;;;;;;17.18;94.56;99551.11;105821;275;38235;-73
2023/08/31 01:26:52;;;;;;;4.50;4.10;;;;;;;17.16;94.48;99550.94;105596;275;38265;-73
2023/08/31 01:29:26;;;;;;;5.30;4.80;;;;;;;17.14;94.34;99550.89;105825;275;39927;-75
2023/08/31 01:32:00;;;;;;;7.30;4.30;;;;;;;17.13;94.23;99552.58;105566;276;40341;-75
2023/08/31 01:34:34;;;;;;;4.40;4.00;;;;;;;17.12;94.47;99553.34;106226;275;38484;-74
2023/08/31 01:37:11;;;;;;;7.10;4.70;;;;;;;17.13;94.48;99554.83;106254;275;38954;-74
2023/08/31 01:39:50;;;;;;;7.00;4.20;;;;;;;17.14;94.40;99550.55;105628;277;38293;-74
2023/08/31 01:42:24;;;;;;;5.00;4.50;;;;;;;17.12;94.37;99545.02;105588;276;38771;-74
2023/08/31 01:44:58;;;;;;;5.50;4.70;;;;;;;17.12;94.43;99544.33;105817;278;38277;-74
2023/08/31 01:47:32;;;;;;;5.80;4.70;;;;;;;17.11;94.27;99545.52;105805;275;39413;-74
2023/08/31 01:50:07;;;;;;;5.10;4.30;;;;;;;17.09;94.07;99545.62;105444;277;174298;-73
2023/08/31 01:52:42;;;;;;;5.20;4.70;;;;;;;17.07;94.22;99549.99;105814;275;39407;-73
2023/08/31 01:55:16;;;;;;;5.60;5.00;;;;;;;17.06;94.21;99555.57;105557;275;38787;-73
2023/08/31 01:57:49;;;;;;;8.40;5.20;;;;;;;17.03;94.12;99555.09;106229;275;39446;-73
2023/08/31 02:00:23;;;;;;;8.10;5.50;;;;;;;17.01;94.11;99554.92;105847;274;38255;-73
2023/08/31 02:02:57;;;;;;;7.90;5.60;;;;;;;17.00;94.29;99550.89;105836;274;38389;-73
2023/08/31 02:05:31;;;;;;;4.70;4.30;;;;;;;16.99;94.29;99552.17;105825;274;38277;-73
2023/08/31 02:08:06;;;;;;;5.60;5.10;;;;;;;16.99;94.23;99552.91;105841;282;38723;-73
2023/08/31 02:10:40;;;;;;;5.20;4.80;;;;;;;16.98;94.32;99551.76;105468;275;174332;-73
2023/08/31 02:13:17;;;;;;;5.50;4.70;;;;;;;16.99;94.57;99558.77;105829;275;38471;-73
2023/08/31 02:15:53;;;;;;;7.90;4.90;;;;;;;16.99;94.57;99556.60;105817;275;38254;-73
2023/08/31 02:18:27;;;;;;;5.40;4.90;;;;;;;16.99;94.50;99556.31;105813;274;39420;-73
2023/08/31 02:21:01;;;;;;;5.00;4.20;;;;;;;16.97;94.22;99559.93;106218;275;39651;-73
2023/08/31 02:23:35;;;;;;;7.00;5.00;;;;;;;16.96;94.23;99562.14;105812;275;39920;-74
2023/08/31 02:26:09;;;;;;;6.60;5.30;;;;;;;16.95;94.24;99563.42;105854;274;38232;-74
2023/08/31 02:28:43;;;;;;;6.70;5.00;;;;;;;16.96;94.54;99565.30;105824;274;39441;-73
2023/08/31 02:31:19;;;;;;;8.60;5.70;;;;;;;16.95;94.23;99561.71;105697;274;174290;-73
2023/08/31 02:33:53;;;;;;;4.60;4.20;;;;;;;16.93;94.16;99565.39;106198;275;38321;-73
2023/08/31 02:36:27;;;;;;;4.60;4.20;;;;;;;16.91;94.34;99562.71;105843;274;38304;-73
2023/08/31 02:39:03;;;;;;;4.40;4.00;;;;;;;16.93;94.56;99567.69;105829;275;39437;-74
2023/08/31 02:41:38;;;;;;;5.30;4.80;;;;;;;16.95;94.58;99567.88;105636;275;39539;-74
2023/08/31 02:44:15;;;;;;;5.70;5.10;;;;;;;16.97;94.73;99569.49;105844;275;38416;-74
2023/08/31 02:46:48;;;;;;;5.80;4.90;;;;;;;16.97;94.78;99570.02;105815;275;38243;-74
2023/08/31 02:49:22;;;;;;;6.60;5.20;;;;;;;16.97;94.78;99567.67;105830;275;39988;-74
2023/08/31 02:51:57;;;;;;;5.00;4.40;;;;;;;16.98;94.84;99567.10;106233;275;38678;-74
2023/08/31 02:54:31;;;;;;;5.00;4.30;;;;;;;16.99;94.56;99569.29;105574;275;38386;-74
2023/08/31 02:57:06;;;;;;;5.00;4.50;;;;;;;16.96;94.42;99570.58;105558;277;38275;-74
2023/08/31 02:59:40;;;;;;;4.70;4.30;;;;;;;16.95;94.45;99566.64;105843;275;39441;-73
2023/08/31 03:02:14;;;;;;;5.10;4.30;;;;;;;16.94;94.50;99568.83;105844;275;38282;-73
2023/08/31 03:04:49;;;;;;;4.20;3.90;;;;;;;16.94;94.46;99567.42;106228;279;39466;-74
2023/08/31 03:07:23;;;;;;;5.50;4.10;;;;;;;16.93;94.66;99566.95;105815;274;38390;-75
2023/08/31 03:09:57;;;;;;;4.70;4.20;;;;;;;16.93;94.53;99566.95;105803;275;38715;-73
2023/08/31 03:12:31;;;;;;;4.40;4.00;;;;;;;16.95;94.72;99572.08;105825;275;38233;-73
2023/08/31 03:15:06;;;;;;;5.20;4.20;;;;;;;16.96;94.62;99573.80;105858;274;39125;-73
2023/08/31 03:17:40;;;;;;;5.60;4.20;;;;;;;16.93;94.58;99577.83;105813;275;38398;-74
2023/08/31 03:20:14;;;;;;;3.80;3.50;;;;;;;16.91;94.28;99578.77;106226;275;39212;-73
2023/08/31 03:22:48;;;;;;;4.00;3.50;;;;;;;16.88;94.33;99581.23;106149;275;38928;-74
2023/08/31 03:25:22;;;;;;;5.70;3.60;;;;;;;16.90;94.41;99588.91;105756;276;39482;-72
2023/08/31 03:28:06;;;;;;;4.40;4.00;;;;;;;16.90;94.34;99591.37;105723;275;174270;-74
2023/08/31 03:30:40;;;;;;;4.30;3.90;;;;;;;16.89;94.39;99586.67;105503;277;39089;-74
2023/08/31 03:33:14;;;;;;;7.80;4.20;;;;;;;16.87;94.42;99583.31;106187;275;38437;-73
2023/08/31 03:35:49;;;;;;;4.00;3.70;;;;;;;16.85;94.34;99585.58;105796;275;38924;-73
2023/08/31 03:38:23;;;;;;;4.60;4.10;;;;;;;16.85;94.57;99591.54;105759;275;38265;-73
2023/08/31 03:41:01;;;;;;;4.10;3.20;;;;;;;16.87;94.74;99589.48;105504;277;38563;-73
2023/08/31 03:43:35;;;;;;;4.00;3.60;;;;;;;16.89;94.85;99589.62;105801;275;38347;-72
2023/08/31 03:46:08;;;;;;;5.00;4.00;;;;;;;16.93;95.14;99591.84;105814;275;38436;-73
2023/08/31 03:48:42;;;;;;;3.70;3.30;;;;;;;16.93;94.69;99593.02;105806;275;38242;-75
2023/08/31 03:51:16;;;;;;;3.40;3.10;;;;;;;16.91;94.54;99593.57;106086;275;174283;-74
2023/08/31 03:53:51;;;;;;;3.40;2.90;;;;;;;16.90;94.31;99596.61;105793;275;39110;-74
2023/08/31 03:56:24;;;;;;;3.20;2.90;;;;;;;16.87;94.19;99597.73;105744;275;38293;-74
2023/08/31 03:58:58;;;;;;;3.50;2.60;;;;;;;16.85;94.16;99603.90;106209;275;38704;-74
2023/08/31 04:01:32;;;;;;;2.60;2.30;;;;;;;16.84;94.17;99607.84;105781;275;38953;-73
2023/08/31 04:04:06;;;;;;;2.60;2.10;;;;;;;16.80;93.84;99611.63;105805;275;39441;-73
2023/08/31 04:06:40;;;;;;;2.10;1.90;;;;;;;16.76;93.75;99610.35;105820;275;38396;-73
2023/08/31 04:09:14;;;;;;;3.40;1.90;;;;;;;16.75;93.87;99613.08;105774;275;38399;-73
2023/08/31 04:11:48;;;;;;;4.90;2.20;;;;;;;16.74;93.95;99610.36;106184;275;38267;-73
2023/08/31 04:14:42;;;;;;;3.90;1.70;;;;;;;16.75;94.09;99611.86;105780;275;38921;-74
2023/08/31 04:17:36;;;;;;;2.50;1.90;;;;;;;16.74;94.05;99614.77;105819;275;39080;-75
2023/08/31 04:20:12;;;;;;;2.60;1.90;;;;;;;16.74;94.22;99611.17;105799;275;38390;-76
2023/08/31 04:22:46;;;;;;;2.20;2.00;;;;;;;16.74;94.23;99609.95;105800;275;38287;-75
2023/08/31 04:25:20;;;;;;;2.70;2.20;;;;;;;16.76;94.35;99604.59;106234;275;38679;-75
2023/08/31 04:27:54;;;;;;;3.30;2.00;;;;;;;16.76;94.30;99599.08;105778;275;38246;-74
2023/08/31 04:30:28;;;;;;;3.30;2.00;;;;;;;16.80;94.33;99606.56;105795;275;38236;-74
2023/08/31 04:33:04;;;;;;;6.60;2.10;;;;;;;16.81;94.07;99609.99;106227;275;39713;-75
2023/08/31 04:35:38;;;;;;;2.50;2.20;;;;;;;16.82;94.13;99612.55;105788;275;38407;-75
2023/08/31 04:38:12;;;;;;;3.40;2.60;;;;;;;16.83;94.43;99610.52;105806;275;38228;-74
2023/08/31 04:40:46;;;;;;;2.10;1.90;;;;;;;16.86;94.56;99610.80;105803;274;38245;-74
2023/08/31 04:43:21;;;;;;;1.80;1.70;;;;;;;16.89;94.46;99608.84;106165;275;39540;-74
2023/08/31 04:45:57;;;;;;;3.00;1.70;;;;;;;16.93;94.48;99612.25;105790;275;38480;-74
2023/08/31 04:48:31;;;;;;;2.30;1.40;;;;;;;16.97;94.28;99614.93;105532;285;38265;-73
2023/08/31 04:51:04;;;;;;;3.10;1.80;;;;;;;16.97;93.82;99614.55;105795;275;38890;-75
2023/08/31 04:53:38;;;;;;;1.60;1.50;;;;;;;16.99;93.98;99624.30;105797;275;38247;-75
2023/08/31 04:56:12;;;;;;;4.80;1.40;;;;;;;17.01;94.29;99626.77;105817;275;38375;-74
2023/08/31 04:58:46;;;;;;;2.60;1.40;;;;;;;17.05;94.08;99627.02;105794;275;38395;-74
2023/08/31 05:01:20;;;;;;;2.20;1.30;;;;;;;17.09;93.96;99628.28;105778;275;38799;-75
2023/08/31 05:03:54;;;;;;;2.30;1.30;;;;;;;17.12;93.96;99633.65;106210;275;39018;-74
2023/08/31 05:06:28;;;;;;;1.40;1.10;;;;;;;17.19;93.95;99640.17;105811;275;38728;-74
2023/08/31 05:09:02;;;;;;;3.30;1.30;;;;;;;17.24;93.78;99638.92;105567;277;39963;-74
2023/08/31 05:11:36;;;;;;;3.50;1.30;;;;;;;17.30;93.60;99645.73;106237;275;38480;-74
2023/08/31 05:14:10;;;;;;;1.60;1.30;;;;;;;17.35;93.19;99650.48;105816;275;38294;-74
2023/08/31 05:16:44;;;;;;;2.10;1.40;;;;;;;17.38;93.32;99649.48;105801;275;38412;-74
2023/08/31 05:19:20;;;;;;;2.40;1.20;;;;;;;17.44;93.26;99649.92;105803;275;38236;-74
2023/08/31 05:21:54;;;;;;;2.50;1.50;;;;;;;17.52;93.72;99657.52;106174;275;38344;-75
2023/08/31 05:24:28;;;;;;;1.70;1.40;;;;;;;17.62;93.19;99656.08;105816;275;38220;-75
2023/08/31 05:27:02;;;;;;;2.20;1.20;;;;;;;17.75;93.70;99658.26;105803;275;38465;-75
2023/08/31 05:29:36;;;;;;;1.60;1.10;;;;;;;17.88;93.90;99660.01;105554;275;38257;-75
2023/08/31 05:32:10;;;;;;;1.30;1.20;;;;;;;18.00;93.07;99664.20;105804;275;38970;-75
2023/08/31 05:34:44;;;;;;;1.10;1.00;;;;;;;18.06;92.12;99665.11;105798;275;38192;-77
2023/08/31 05:37:18;;;;;;;2.30;1.20;;;;;;;18.12;91.56;99669.42;105804;275;39245;-74
2023/08/31 05:39:53;;;;;;;1.50;1.20;;;;;;;18.13;90.21;99673.02;105562;275;38517;-74
2023/08/31 05:42:28;;;;;;;2.00;1.20;;;;;;;18.10;89.10;99675.06;106250;275;39635;-74
2023/08/31 05:45:03;;;;;;;1.40;1.20;;;;;;;18.08;88.93;99675.55;105615;276;38437;-75
2023/08/31 05:47:38;;;;;;;2.50;1.30;;;;;;;18.09;89.34;99681.14;105799;275;39431;-74
2023/08/31 05:50:12;;;;;;;1.80;1.20;;;;;;;18.11;88.83;99688.20;106208;275;38502;-74
2023/08/31 05:52:46;;;;;;;2.20;1.00;;;;;;;18.12;88.15;99693.11;105767;275;39505;-74
2023/08/31 05:55:20;;;;;;;3.20;1.40;;;;;;;18.13;87.99;99692.65;105782;275;38462;-74
2023/08/31 05:57:54;;;;;;;1.40;1.10;;;;;;;18.11;87.59;99691.37;105781;275;38228;-75
2023/08/31 06:00:28;;;;;;;2.30;1.20;;;;;;;18.10;87.30;99696.06;105803;275;38241;-74
2023/08/31 06:03:04;;;;;;;1.70;1.30;;;;;;;18.10;87.28;99697.84;105812;275;39663;-74
2023/08/31 06:05:38;;;;;;;2.00;1.40;;;;;;;18.11;87.53;99699.13;105783;275;38298;-74
2023/08/31 06:08:12;;;;;;;1.90;1.20;;;;;;;18.14;86.85;99708.30;105825;275;39986;-75
2023/08/31 06:10:48;;;;;;;3.10;1.40;;;;;;;18.16;87.11;99712.20;105785;275;38919;-76
2023/08/31 06:13:22;;;;;;;3.10;1.70;;;;;;;18.23;86.95;99718.66;106205;275;39424;-74
2023/08/31 06:15:57;;;;;;;1.70;1.40;;;;;;;18.31;86.32;99717.80;105844;275;38847;-75
2023/08/31 06:18:31;;;;;;;3.40;1.80;;;;;;;18.55;88.35;99717.45;105776;275;39408;-74
2023/08/31 06:21:05;;;;;;;4.20;1.70;;;;;;;19.07;89.64;99716.59;105777;275;39467;-75
2023/08/31 06:23:39;;;;;;;1.80;1.40;;;;;;;19.47;87.69;99713.91;106200;275;39113;-75
2023/08/31 06:26:13;;;;;;;2.30;1.30;;;;;;;19.66;85.85;99713.73;105582;277;38451;-75
2023/08/31 06:28:47;;;;;;;2.40;1.40;;;;;;;19.72;82.88;99711.05;106200;275;38448;-76
2023/08/31 06:31:21;;;;;;;2.40;1.30;;;;;;;19.72;82.88;99712.98;105763;275;39940;-74
2023/08/31 06:33:55;;;;;;;1.40;1.10;;;;;;;19.76;82.64;99713.69;105779;275;38234;-74
2023/08/31 06:36:29;;;;;;;3.10;1.40;;;;;;;19.79;82.19;99714.86;105796;275;38823;-75
2023/08/31 06:39:04;;;;;;;1.50;1.30;;;;;;;19.81;81.99;99715.91;105582;277;39810;-76
2023/08/31 06:41:38;;;;;;;4.50;1.50;;;;;;;19.90;82.02;99719.80;105559;275;39475;-75
2023/08/31 06:44:12;;;;;;;1.10;0.90;;;;;;;19.96;81.06;99722.77;105797;275;38663;-75
2023/08/31 06:46:46;;;;;;;1.30;1.20;;;;;;;19.98;79.62;99722.44;105791;275;39007;-75
2023/08/31 06:49:19;;;;;;;3.20;1.10;;;;;;;20.02;79.28;99726.98;105793;275;39569;-75
2023/08/31 06:51:54;;;;;;;1.60;1.10;;;;;;;20.11;79.18;99725.00;106212;275;39415;-75
2023/08/31 06:54:29;;;;;;;1.60;1.00;;;;;;;20.22;79.25;99722.81;105548;277;38494;-76
2023/08/31 06:57:03;;;;;;;2.00;1.10;;;;;;;20.29;78.49;99721.75;105779;275;38823;-74
2023/08/31 06:59:37;;;;;;;1.20;1.10;;;;;;;20.41;78.52;99722.73;105785;275;39592;-74
2023/08/31 07:02:12;;;;;;;2.40;1.10;;;;;;;20.47;77.55;99727.48;105736;275;39938;-75
2023/08/31 07:04:47;;;;;;;2.40;1.10;;;;;;;20.47;76.95;99726.75;105138;276;695205;-75
2023/08/31 07:07:24;;;;;;;2.00;1.20;;;;;;;20.52;75.72;99731.50;105768;275;38792;-74
2023/08/31 07:09:59;;;;;;;1.50;1.40;;;;;;;20.54;75.91;99734.67;106232;275;39517;-75
2023/08/31 07:12:33;;;;;;;1.60;1.20;;;;;;;20.55;74.83;99733.02;105821;275;38506;-72
2023/08/31 07:15:09;;;;;;;1.70;1.10;;;;;;;20.54;74.85;99734.29;105564;272;39904;-73
2023/08/31 07:17:43;;;;;;;2.20;1.40;;;;;;;20.55;74.87;99734.56;105680;276;174058;-73
2023/08/31 07:20:17;;;;;;;2.00;1.30;;;;;;;20.55;74.55;99730.61;105793;275;39403;-74
2023/08/31 07:22:52;;;;;;;2.50;1.60;;;;;;;20.55;74.47;99736.02;105813;275;38295;-73
2023/08/31 07:25:27;;;;;;;2.30;1.50;;;;;;;20.61;75.05;99736.30;105786;275;38227;-73
2023/08/31 07:28:01;;;;;;;2.70;1.60;;;;;;;20.74;74.29;99740.64;105542;277;38369;-72
2023/08/31 07:30:35;;;;;;;2.30;1.40;;;;;;;20.82;73.32;99743.43;106156;275;39374;-72
2023/08/31 07:33:09;;;;;;;2.80;1.60;;;;;;;20.91;73.35;99739.81;105818;275;38441;-74
2023/08/31 07:35:43;;;;;;;2.40;1.70;;;;;;;21.03;72.51;99741.23;105779;275;40852;-74
2023/08/31 07:38:17;;;;;;;3.20;1.30;;;;;;;21.05;72.19;99751.28;105826;275;39622;-75
2023/08/31 07:40:52;;;;;;;1.50;1.10;;;;;;;21.10;71.77;99748.36;105781;275;39968;-75
2023/08/31 07:43:29;;;;;;;2.70;1.40;;;;;;;21.23;70.70;99751.64;105803;275;39405;-74
2023/08/31 07:46:03;;;;;;;2.50;1.50;;;;;;;21.33;70.61;99749.25;106158;275;38935;-74
2023/08/31 07:48:38;;;;;;;2.30;1.40;;;;;;;21.44;70.16;99746.48;105505;275;38544;-74
2023/08/31 07:51:13;;;;;;;1.50;1.40;;;;;;;21.61;70.06;99751.30;105824;275;39069;-74
2023/08/31 07:53:46;;;;;;;1.90;1.30;;;;;;;21.85;70.16;99750.39;105797;275;39485;-75
2023/08/31 07:56:20;;;;;;;1.50;1.20;;;;;;;22.29;69.86;99752.63;105802;275;39405;-75
2023/08/31 07:58:55;;;;;;;2.20;1.40;;;;;;;22.99;69.46;99756.81;105590;275;38554;-77
2023/08/31 08:01:29;;;;;;;1.80;1.20;;;;;;;23.86;66.88;99754.20;105801;275;38938;-75
2023/08/31 08:04:03;;;;;;;1.70;1.00;;;;;;;24.68;64.08;99752.96;105600;275;38443;-75
2023/08/31 08:06:42;;;;;;;3.60;1.80;;;;;;;25.37;61.84;99749.56;106184;275;39041;-75
2023/08/31 08:09:18;;;;;;;1.90;1.00;;;;;;;26.26;60.74;99754.09;105798;275;38224;-75
2023/08/31 08:11:52;;;;;;;4.00;1.80;;;;;;;27.02;58.74;99758.58;105795;275;38390;-75
2023/08/31 08:14:26;;;;;;;1.70;0.90;;;;;;;27.51;55.13;99763.27;105804;275;38710;-74
2023/08/31 08:17:01;;;;;;;1.20;0.80;;;;;;;27.63;53.06;99767.70;106217;275;38524;-76
2023/08/31 08:19:35;;;;;;;1.20;0.80;;;;;;;27.53;52.77;99771.49;106213;275;39595;-76
2023/08/31 08:22:09;;;;;;;1.50;0.80;;;;;;;27.44;52.50;99774.98;106194;275;38768;-76
2023/08/31 08:24:43;;;;;;;1.70;0.80;;;;;;;27.28;51.25;99768.06;105795;275;39964;-76
2023/08/31 08:27:17;;;;;;;2.80;1.10;;;;;;;27.25;52.07;99772.34;105788;275;38258;-77
2023/08/31 08:29:52;;;;;;;1.50;1.00;;;;;;;27.23;51.32;99768.88;105792;275;38674;-77
2023/08/31 08:32:26;;;;;;;2.10;1.00;;;;;;;27.21;50.25;99768.86;105822;275;38392;-75
2023/08/31 08:35:00;;;;;;;2.20;1.00;;;;;;;27.17;50.64;99770.39;105784;275;38509;-75
2023/08/31 08:37:35;;;;;;;1.70;0.90;;;;;;;27.19;49.28;99773.83;105784;275;39420;-74
2023/08/31 08:40:11;;;;;;;1.40;0.80;;;;;;;27.16;49.26;99775.59;106219;275;39883;-74
2023/08/31 08:42:46;;;;;;;1.70;0.90;;;;;;;27.09;49.50;99770.35;106231;275;38746;-74
2023/08/31 08:45:20;;;;;;;2.10;1.00;;;;;;;26.92;49.31;99774.45;105809;275;38732;-74
2023/08/31 08:47:55;;;;;;;1.90;0.80;;;;;;;26.75;49.84;99780.16;105786;279;38730;-76
2023/08/31 08:50:31;;;;;;;1.10;0.90;;;;;;;26.65;49.41;99784.14;105775;275;38940;-76
2023/08/31 08:53:05;;;;;;;2.20;1.10;;;;;;;26.57;49.90;99781.30;105761;275;38865;-74
2023/08/31 08:55:40;;;;;;;1.90;0.80;;;;;;;26.46;49.85;99785.41;105464;277;38374;-75
2023/08/31 08:58:14;;;;;;;1.50;0.90;;;;;;;26.37;50.21;99784.63;105683;275;173637;-75
2023/08/31 09:00:50;;;;;;;2.60;1.30;;;;;;;26.34;49.94;99787.89;105540;275;38317;-76
2023/08/31 09:03:24;;;;;;;2.60;1.20;;;;;;;26.36;50.09;99789.09;105800;275;38225;-75
2023/08/31 09:05:58;;;;;;;1.20;1.10;;;;;;;26.55;50.29;99792.81;106219;275;38998;-75
2023/08/31 09:08:32;;;;;;;3.00;1.30;;;;;;;26.72;49.22;99792.42;105779;275;38511;-74
2023/08/31 09:11:06;;;;;;;3.60;1.20;;;;;;;26.87;48.88;99793.29;105793;275;39419;-76
2023/08/31 09:13:40;;;;;;;3.30;1.30;;;;;;;26.91;48.65;99797.95;106241;275;38339;-76
2023/08/31 09:16:26;;;;;;;3.10;1.30;;;;;;;26.93;48.39;99796.29;105799;275;39192;-74
2023/08/31 09:19:00;;;;;;;1.70;1.10;;;;;;;26.88;48.17;99795.27;105788;275;38381;-74
2023/08/31 09:21:45;;;;;;;2.40;1.50;;;;;;;26.82;48.54;99795.09;105802;275;38272;-74
2023/08/31 09:24:19;;;;;;;1.90;1.10;;;;;;;26.91;48.66;99796.92;105794;275;38948;-74
2023/08/31 09:26:56;;;;;;;1.40;1.20;;;;;;;26.99;48.73;99799.95;105776;275;38230;-74
2023/08/31 09:29:30;;;;;;;2.00;1.40;;;;;;;27.10;48.15;99803.24;105534;275;39014;-74
2023/08/31 09:32:04;;;;;;;3.20;1.40;;;;;;;27.10;47.22;99803.82;105791;275;38268;-74
2023/08/31 09:34:38;;;;;;;1.50;1.40;;;;;;;27.01;47.93;99806.48;105809;275;38254;-74
2023/08/31 09:37:12;;;;;;;2.10;1.50;;;;;;;26.96;47.84;99810.60;105795;275;38093;-73
2023/08/31 09:39:46;;;;;;;4.30;1.30;;;;;;;26.99;48.42;99805.48;105548;284;38541;-73
2023/08/31 09:42:21;;;;;;;2.00;1.20;;;;;;;27.07;48.61;99812.54;105787;275;38735;-72
2023/08/31 09:44:55;;;;;;;2.70;1.40;;;;;;;27.15;48.21;99814.37;105763;275;38223;-71
2023/08/31 09:47:29;;;;;;;1.40;1.00;;;;;;;27.21;47.86;99812.86;105765;275;38227;-72
2023/08/31 09:50:03;;;;;;;1.80;1.20;;;;;;;27.29;47.76;99814.03;105777;275;38665;-72
2023/08/31 09:52:37;;;;;;;2.90;1.00;;;;;;;27.11;46.96;99816.77;105814;275;39601;-77
2023/08/31 09:55:12;;;;;;;1.30;1.00;;;;;;;26.84;47.16;99814.20;105580;277;38332;-76
2023/08/31 09:57:47;;;;;;;1.90;1.30;;;;;;;26.59;47.89;99818.52;106233;275;38549;-76
2023/08/31 10:00:21;;;;;;;1.40;1.20;;;;;;;26.41;48.28;99821.98;105787;275;38592;-76
2023/08/31 10:02:59;;;;;;;2.70;1.20;;;;;;;26.20;47.92;99821.25;105808;275;38407;-74
2023/08/31 10:05:33;;;;;;;1.70;1.00;;;;;;;26.15;48.78;99822.55;105819;275;38427;-73
2023/08/31 10:08:08;;;;;;;1.50;1.00;;;;;;;26.13;47.94;99827.09;106207;275;38206;-76
2023/08/31 10:10:45;;;;;;;3.40;1.20;;;;;;;26.01;48.13;99829.86;105791;275;39638;-74
2023/08/31 10:13:19;;;;;;;1.70;1.50;;;;;;;25.88;48.00;99831.80;105811;275;38525;-73
2023/08/31 10:15:54;;;;;;;1.80;1.20;;;;;;;25.78;47.49;99832.06;105763;275;38886;-73
2023/08/31 10:18:28;;;;;;;1.60;1.20;;;;;;;25.72;48.16;99831.05;105807;263;38712;-73
2023/08/31 10:21:02;;;;;;;1.40;1.00;;;;;;;25.79;48.03;99833.14;105781;275;39383;-72
2023/08/31 10:23:37;;;;;;;1.70;1.40;;;;;;;25.91;48.36;99830.41;105806;275;38697;-73
2023/08/31 10:26:11;;;;;;;1.60;1.30;;;;;;;25.95;47.84;99830.27;105808;275;39390;-73
2023/08/31 10:28:46;;;;;;;2.50;1.70;;;;;;;25.87;48.15;99831.94;105788;275;38921;-73
2023/08/31 10:31:22;;;;;;;1.50;1.30;;;;;;;25.74;48.27;99826.36;105828;275;38239;-73
2023/08/31 10:34:03;;;;;;;3.30;1.70;;;;;;;25.56;47.87;99828.37;105792;275;38308;-73
2023/08/31 10:36:44;;;;;;;3.20;1.40;;;;;;;25.50;48.87;99832.42;106235;275;39442;-74
2023/08/31 10:39:19;;;;;;;3.00;1.50;;;;;;;25.41;49.15;99829.31;105787;275;38421;-74
2023/08/31 10:41:58;;;;;;;1.60;1.40;;;;;;;25.28;49.13;99825.76;105780;275;38770;-72
2023/08/31 10:44:33;;;;;;;3.20;1.80;;;;;;;25.13;49.68;99829.63;106215;275;38757;-72
2023/08/31 10:47:09;;;;;;;2.10;1.80;;;;;;;25.01;49.42;99831.75;105790;275;38222;-74
2023/08/31 10:49:43;;;;;;;3.90;2.00;;;;;;;24.92;49.77;99835.60;105775;275;39023;-74
2023/08/31 10:52:21;;;;;;;2.40;1.70;;;;;;;24.85;49.45;99831.94;105783;275;38685;-74
2023/08/31 10:54:58;;;;;;;2.30;1.80;;;;;;;24.91;50.19;99831.83;105810;275;38296;-73
2023/08/31 10:57:35;;;;;;;2.80;1.80;;;;;;;25.00;50.82;99827.13;106183;275;38643;-73
2023/08/31 11:00:13;;;;;;;3.10;1.70;;;;;;;25.13;51.29;99830.83;106201;275;39803;-73
2023/08/31 11:02:48;;;;;;;1.90;1.80;;;;;;;25.18;50.32;99826.52;105810;276;38273;-72
2023/08/31 11:05:22;;;;;;;2.40;1.90;;;;;;;25.12;49.25;99828.69;105811;275;38377;-72
2023/08/31 11:07:57;;;;;;;2.50;2.00;;;;;;;25.02;48.99;99829.20;105582;275;38299;-72
2023/08/31 11:10:31;;;;;;;2.00;1.70;;;;;;;25.00;49.84;99825.63;105768;275;38223;-71
2023/08/31 11:13:05;;;;;;;2.10;1.80;;;;;;;25.10;49.49;99822.90;105817;275;38758;-72
2023/08/31 11:15:40;;;;;;;2.40;2.00;;;;;;;25.27;50.60;99819.75;106184;275;38545;-73
2023/08/31 11:18:17;;;;;;;4.00;2.30;;;;;;;25.47;50.10;99828.48;105773;275;38448;-73
2023/08/31 11:20:55;;;;;;;2.70;2.00;;;;;;;25.54;49.18;99833.64;105811;264;38743;-73
2023/08/31 11:23:28;;;;;;;;;;;;;;;25.49;49.27;99831.05;105817;275;40047;-73
2023/08/31 11:26:04;;;;;;;2.40;1.90;;;;;;;25.40;49.18;99829.75;105691;275;171367;-71
2023/08/31 11:28:39;;;;;;;2.60;2.00;;;;;;;25.35;49.27;99834.03;106195;275;39060;-71
2023/08/31 11:31:13;;;;;;;2.40;1.90;;;;;;;25.38;48.45;99833.30;105790;275;38532;-73
2023/08/31 11:33:49;;;;;;;2.80;2.00;;;;;;;25.39;47.68;99833.99;105780;275;38650;-73
2023/08/31 11:36:24;;;;;;;1.80;1.70;;;;;;;25.38;47.92;99835.81;105797;275;38228;-73
2023/08/31 11:38:58;;;;;;;2.70;1.70;;;;;;;25.46;48.70;99841.90;105798;275;38282;-73
2023/08/31 11:41:36;;;;;;;4.10;2.30;;;;;;;25.47;47.99;99839.73;105801;275;38244;-73
2023/08/31 11:44:10;;;;;;;2.10;1.60;;;;;;;25.35;47.43;99841.50;105756;275;39607;-73
2023/08/31 11:46:46;;;;;;;2.10;1.90;;;;;;;25.25;47.23;99839.20;105795;275;38902;-73
2023/08/31 11:49:20;;;;;;;3.50;2.20;;;;;;;25.22;48.00;99832.92;105776;279;39934;-73
2023/08/31 11:51:54;;;;;;;3.40;1.90;;;;;;;25.28;48.67;99831.02;105788;275;38846;-73
2023/08/31 11:54:30;;;;;;;2.50;2.00;;;;;;;25.36;48.88;99831.76;105826;275;38866;-74
2023/08/31 11:57:04;;;;;;;2.80;1.80;;;;;;;25.32;48.54;99829.40;105800;275;40183;-72
2023/08/31 11:59:40;;;;;;;2.50;1.80;;;;;;;25.23;49.03;99833.18;105801;275;38794;-71
2023/08/31 12:02:14;;;;;;;2.20;1.70;;;;;;;25.20;48.96;99832.95;105808;275;38768;-72
2023/08/31 12:04:48;;;;;;;2.80;2.00;;;;;;;25.20;48.45;99824.78;105791;275;38225;-73
2023/08/31 12:07:22;;;;;;;2.20;1.90;;;;;;;25.11;48.80;99824.46;105804;275;38264;-72
2023/08/31 12:09:56;;;;;;;2.10;1.90;;;;;;;25.02;49.09;99824.96;105802;275;38261;-73